Time;durP1;ratioP1;P1;durP2;ratioP2;P2;SDS_P1;SDS_P2;PMS_P1;PMS_P2;Temp;Humidity;BMP_temperature;BMP_pressure;BME280_temperature;BME280_humidity;BME280_pressure;Samples;Min_cycle;Max_cycle;Signal;HPM_P1;HPM_P2
2021/01/14 00:01:27;;;;;;;30.83;14.88;;;;;;;-3.10;87.13;98071.69;3507499;28;20048;-43
2021/01/14 00:03:10;;;;;;;36.28;16.73;;;;;;;-3.08;86.66;98075.13;3511022;28;20056;-43
2021/01/14 00:04:52;;;;;;;38.17;16.05;;;;;;;-3.04;86.58;98078.66;3508229;28;20083;-43
2021/01/14 00:06:34;;;;;;;39.55;16.85;;;;;;;-3.04;86.43;98077.03;3508878;28;20085;-44
2021/01/14 00:08:16;;;;;;;38.67;17.17;;;;;;;-3.05;85.94;98074.41;3512980;28;20429;-50
2021/01/14 00:09:58;;;;;;;32.63;15.13;;;;;;;-3.07;85.98;98069.28;3510832;28;20501;-43
2021/01/14 00:11:39;;;;;;;34.90;15.48;;;;;;;-3.10;85.71;98071.69;3510291;28;20047;-43
2021/01/14 00:13:21;;;;;;;27.98;12.43;;;;;;;-3.12;85.54;98078.38;3510317;28;20471;-44
2021/01/14 00:15:04;;;;;;;32.58;14.40;;;;;;;-3.15;85.48;98073.16;3508752;28;20055;-43
2021/01/14 00:16:46;;;;;;;32.13;15.18;;;;;;;-3.19;85.60;98063.69;3510265;28;20051;-43
2021/01/14 00:18:27;;;;;;;33.13;15.23;;;;;;;-3.21;85.96;98066.16;3509944;28;20044;-44
2021/01/14 00:20:13;;;;;;;28.65;13.80;;;;;;;-3.23;85.93;98075.38;3511780;28;20497;-43
2021/01/14 00:21:54;;;;;;;30.85;14.55;;;;;;;-3.24;85.99;98072.78;3510124;28;20052;-44
2021/01/14 00:23:36;;;;;;;33.55;14.68;;;;;;;-3.25;86.25;98074.47;3514608;28;20493;-44
2021/01/14 00:25:19;;;;;;;33.20;15.75;;;;;;;-3.25;86.50;98069.38;3511423;28;20078;-44
2021/01/14 00:27:00;;;;;;;30.67;15.00;;;;;;;-3.23;86.64;98069.47;3512941;28;20606;-49
2021/01/14 00:28:42;;;;;;;29.38;14.23;;;;;;;-3.22;86.71;98071.16;3510461;28;20055;-48
2021/01/14 00:30:26;;;;;;;28.42;13.45;;;;;;;-3.22;86.59;98069.53;3509093;28;20044;-52
2021/01/14 00:32:07;;;;;;;34.03;16.65;;;;;;;-3.22;86.01;98066.09;3509507;28;20425;-54
2021/01/14 00:33:49;;;;;;;41.22;16.52;;;;;;;-3.22;85.97;98069.53;3508676;28;20408;-50
2021/01/14 00:35:31;;;;;;;33.35;15.43;;;;;;;-3.23;86.30;98065.25;3510244;28;20056;-48
2021/01/14 00:39:12;;;;;;;30.75;14.80;;;;;;;-3.23;85.94;98062.72;3508778;28;20047;-52
2021/01/14 00:40:53;;;;;;;34.70;14.55;;;;;;;-3.23;85.64;98066.91;3510001;28;20059;-49
2021/01/14 00:42:35;;;;;;;40.10;15.88;;;;;;;-3.24;85.80;98062.63;3509273;28;20090;-53
2021/01/14 00:44:17;;;;;;;33.72;15.10;;;;;;;-3.24;85.79;98065.19;3507163;28;20501;-52
2021/01/14 00:45:58;;;;;;;34.47;16.23;;;;;;;-3.24;85.97;98066.03;3510562;28;20052;-52
2021/01/14 00:47:39;;;;;;;36.80;16.65;;;;;;;-3.23;86.08;98072.84;3508392;28;20066;-50
2021/01/14 00:49:21;;;;;;;33.55;15.10;;;;;;;-3.22;86.06;98066.09;3509060;28;20040;-50
2021/01/14 00:51:03;;;;;;;27.45;13.07;;;;;;;-3.23;85.79;98074.53;3510283;28;20048;-52
2021/01/14 00:52:44;;;;;;;33.22;14.85;;;;;;;-3.24;86.09;98076.19;3503063;28;20053;-43
2021/01/14 00:54:25;;;;;;;26.05;13.20;;;;;;;-3.25;85.95;98071.06;3499286;28;20055;-43
2021/01/14 00:56:07;;;;;;;25.13;11.65;;;;;;;-3.26;85.67;98079.47;3509252;28;20138;-43
2021/01/14 00:57:49;;;;;;;32.47;15.10;;;;;;;-3.26;86.06;98080.31;3506923;28;20520;-43
2021/01/14 00:59:31;;;;;;;33.05;14.63;;;;;;;-3.25;86.37;98081.22;3510555;28;20059;-43
2021/01/14 01:01:12;;;;;;;33.78;15.18;;;;;;;-3.25;86.33;98084.59;3507033;28;20086;-44
2021/01/14 01:02:55;;;;;;;31.92;14.85;;;;;;;-3.24;86.03;98083.78;3507043;28;20044;-43
2021/01/14 01:04:36;;;;;;;33.63;15.07;;;;;;;-3.23;86.07;98088.06;3510433;28;20044;-43
2021/01/14 01:06:17;;;;;;;37.08;15.43;;;;;;;-3.21;86.02;98083.91;3506756;28;20052;-43
2021/01/14 01:07:59;;;;;;;36.85;16.17;;;;;;;-3.23;85.77;98083.00;3508319;28;20527;-43
2021/01/14 01:09:40;;;;;;;29.45;15.10;;;;;;;-3.23;85.53;98074.53;3508870;28;20056;-43
2021/01/14 01:11:23;;;;;;;39.22;18.33;;;;;;;-3.25;85.29;98071.06;3508042;28;20079;-44
2021/01/14 01:13:05;;;;;;;40.50;16.02;;;;;;;-3.26;85.64;98066.78;3510425;28;20086;-43
2021/01/14 01:14:47;;;;;;;34.28;15.57;;;;;;;-3.25;85.73;98068.53;3506978;28;20055;-43
2021/01/14 01:16:28;;;;;;;41.65;18.10;;;;;;;-3.26;85.60;98067.63;3506825;28;20054;-44
2021/01/14 01:18:10;;;;;;;33.08;15.70;;;;;;;-3.27;85.51;98077.72;3509281;28;20062;-43
2021/01/14 01:19:51;;;;;;;31.35;14.68;;;;;;;-3.27;85.49;98073.53;3508086;28;20051;-44
2021/01/14 01:21:32;;;;;;;41.55;18.10;;;;;;;-3.27;85.98;98080.25;3507987;28;20043;-44
2021/01/14 01:23:14;;;;;;;35.28;16.08;;;;;;;-3.28;86.15;98071.78;3497465;28;20093;-43
2021/01/14 01:24:55;;;;;;;38.50;16.65;;;;;;;-3.28;85.74;98071.78;3503884;28;20130;-43
2021/01/14 01:26:36;;;;;;;37.80;16.63;;;;;;;-3.28;85.92;98076.00;3509498;28;20051;-44
2021/01/14 01:28:17;;;;;;;41.13;20.23;;;;;;;-3.28;86.22;98073.47;3505845;28;20052;-43
2021/01/14 01:30:00;;;;;;;36.00;15.65;;;;;;;-3.29;86.33;98075.16;3509424;28;20044;-43
2021/01/14 01:31:41;;;;;;;43.53;18.38;;;;;;;-3.28;86.39;98073.47;3507136;28;20052;-50
2021/01/14 01:33:25;;;;;;;42.58;18.45;;;;;;;-3.27;86.23;98072.66;3508475;28;20416;-49
2021/01/14 01:35:09;;;;;;;45.80;16.80;;;;;;;-3.28;86.36;98079.41;3508019;28;20089;-48
2021/01/14 01:36:51;;;;;;;50.10;20.42;;;;;;;-3.29;86.88;98082.75;3510502;28;20052;-43
2021/01/14 01:38:32;;;;;;;48.15;18.88;;;;;;;-3.30;87.01;98086.06;3506694;28;20080;-43
2021/01/14 01:40:14;;;;;;;47.47;19.88;;;;;;;-3.31;87.26;98075.88;3508310;28;20047;-43
2021/01/14 01:41:57;;;;;;;52.50;22.92;;;;;;;-3.31;87.34;98079.25;3509983;28;20052;-45
2021/01/14 01:43:38;;;;;;;48.78;20.95;;;;;;;-3.31;87.45;98076.72;3509390;28;20048;-43
2021/01/14 01:45:21;;;;;;;56.60;22.33;;;;;;;-3.30;87.73;98075.94;3507844;28;20497;-43
2021/01/14 01:47:05;;;;;;;61.72;23.30;;;;;;;-3.29;87.89;98084.41;3495914;28;20067;-44
2021/01/14 01:48:47;;;;;;;54.15;22.73;;;;;;;-3.29;87.65;98081.84;3505372;28;20075;-43
2021/01/14 01:50:29;;;;;;;49.38;21.80;;;;;;;-3.28;87.91;98074.31;3508748;28;20456;-43
2021/01/14 01:52:10;;;;;;;42.03;17.83;;;;;;;-3.28;87.49;98076.84;3510290;28;20078;-43
2021/01/14 01:53:53;;;;;;;49.72;21.30;;;;;;;-3.25;87.80;98076.13;3507714;28;20462;-43
2021/01/14 01:55:35;;;;;;;51.88;21.73;;;;;;;-3.25;87.90;98074.47;3509051;28;20081;-43
2021/01/14 01:57:16;;;;;;;46.97;20.05;;;;;;;-3.24;87.85;98076.19;3508783;28;20055;-43
2021/01/14 01:58:58;;;;;;;42.92;19.38;;;;;;;-3.23;87.79;98072.00;3507813;28;20048;-43
2021/01/14 02:00:40;;;;;;;55.55;22.48;;;;;;;-3.22;88.16;98067.00;3509258;28;20415;-43
2021/01/14 02:02:24;;;;;;;48.92;20.40;;;;;;;-3.20;88.00;98064.50;3507376;28;20052;-44
2021/01/14 02:04:06;;;;;;;49.28;21.02;;;;;;;-3.19;87.89;98072.16;3507366;28;20044;-43
2021/01/14 02:05:47;;;;;;;45.63;18.65;;;;;;;-3.16;88.09;98070.56;3495840;28;20053;-43
2021/01/14 02:07:46;;;;;;;42.97;18.80;;;;;;;-3.15;87.97;98084.97;3507051;28;20051;-43
2021/01/14 02:09:27;;;;;;;45.42;20.40;;;;;;;-3.17;88.04;98077.31;3505029;28;20044;-43
2021/01/14 02:11:15;;;;;;;44.88;18.65;;;;;;;-3.18;88.09;98085.72;3495999;28;20102;-43
2021/01/14 02:13:06;;;;;;;44.15;19.48;;;;;;;-3.19;88.21;98084.84;3507482;28;20143;-43
2021/01/14 02:14:55;;;;;;;40.58;18.20;;;;;;;-3.20;88.07;98085.66;3507592;28;20510;-43
2021/01/14 02:16:38;;;;;;;38.58;18.08;;;;;;;-3.20;87.99;98083.13;3509098;28;20497;-43
2021/01/14 02:18:20;;;;;;;48.13;19.67;;;;;;;-3.19;88.25;98079.78;3499131;28;20049;-44
2021/01/14 02:20:03;;;;;;;44.13;19.58;;;;;;;-3.17;88.56;98074.78;3498692;28;20044;-44
2021/01/14 02:21:47;;;;;;;45.70;19.83;;;;;;;-3.16;88.25;98080.69;3509904;28;20047;-44
2021/01/14 02:23:37;;;;;;;44.72;20.88;;;;;;;-3.15;88.47;98083.31;3506204;28;20063;-43
2021/01/14 02:25:23;;;;;;;54.55;23.25;;;;;;;-3.14;88.54;98089.25;3507873;28;20039;-43
2021/01/14 02:27:06;;;;;;;53.50;22.08;;;;;;;-3.15;88.49;98092.59;3509683;28;20087;-43
2021/01/14 02:28:48;;;;;;;53.40;22.58;;;;;;;-3.15;88.48;98088.38;3508280;28;20139;-43
2021/01/14 02:30:30;;;;;;;48.78;21.30;;;;;;;-3.16;88.25;98086.66;3509941;28;20388;-44
2021/01/14 02:32:15;;;;;;;53.33;21.50;;;;;;;-3.16;88.31;98084.13;3512119;28;20048;-43
2021/01/14 02:33:57;;;;;;;41.17;18.30;;;;;;;-3.16;88.37;98084.13;3509922;28;20059;-43
2021/01/14 02:35:39;;;;;;;45.20;18.65;;;;;;;-3.15;88.54;98080.75;3509760;28;20083;-43
2021/01/14 02:37:20;;;;;;;41.55;16.35;;;;;;;-3.15;88.28;98083.31;3498337;28;20049;-43
2021/01/14 02:39:02;;;;;;;50.70;22.85;;;;;;;-3.14;88.45;98084.19;3504857;28;20044;-43
2021/01/14 02:40:43;;;;;;;50.47;21.75;;;;;;;-3.14;88.46;98092.66;3511308;28;20586;-44
2021/01/14 02:42:25;;;;;;;54.15;23.00;;;;;;;-3.14;88.45;98076.59;3510502;28;20044;-43
2021/01/14 02:44:06;;;;;;;58.50;23.17;;;;;;;-3.15;88.48;98068.09;3508594;28;20051;-43
2021/01/14 02:45:47;;;;;;;51.20;22.35;;;;;;;-3.14;88.61;98071.50;3512228;28;20048;-43
2021/01/14 02:47:31;;;;;;;52.65;23.40;;;;;;;-3.15;88.64;98064.69;3509468;28;20040;-44
2021/01/14 02:49:15;;;;;;;54.63;24.33;;;;;;;-3.14;88.55;98066.44;3510810;28;20417;-43
2021/01/14 02:51:00;;;;;;;56.45;23.48;;;;;;;-3.16;88.66;98063.84;3512086;28;20208;-44
2021/01/14 02:52:44;;;;;;;54.30;22.58;;;;;;;-3.16;88.58;98062.94;3509579;28;20416;-43
2021/01/14 02:54:27;;;;;;;50.40;22.80;;;;;;;-3.17;88.46;98057.03;3511167;28;20056;-44
2021/01/14 02:56:10;;;;;;;58.75;23.25;;;;;;;-3.17;88.75;98059.56;3511910;28;20048;-43
2021/01/14 02:57:52;;;;;;;58.00;23.80;;;;;;;-3.16;88.54;98060.41;3508185;28;20469;-43
2021/01/14 02:59:34;;;;;;;56.20;24.15;;;;;;;-3.17;88.74;98057.03;3511009;28;20052;-43
2021/01/14 03:01:15;;;;;;;57.40;24.27;;;;;;;-3.16;88.89;98063.84;3510590;28;20149;-43
2021/01/14 03:02:57;;;;;;;64.10;25.95;;;;;;;-3.16;88.64;98058.75;3508905;28;20040;-44
2021/01/14 03:04:38;;;;;;;48.30;21.52;;;;;;;-3.16;88.84;98071.44;3511848;28;20497;-43
2021/01/14 03:06:19;;;;;;;58.88;24.27;;;;;;;-3.15;88.87;98062.16;3508887;28;20142;-44
2021/01/14 03:08:01;;;;;;;52.60;22.92;;;;;;;-3.14;88.74;98063.91;3508129;28;20047;-44
2021/01/14 03:09:42;;;;;;;59.63;24.92;;;;;;;-3.14;88.76;98062.22;3511769;28;20051;-43
2021/01/14 03:11:27;;;;;;;57.22;23.33;;;;;;;-3.13;88.77;98061.44;3508483;28;20040;-43
2021/01/14 03:13:09;;;;;;;57.50;23.85;;;;;;;-3.12;88.59;98067.38;3509548;28;20059;-43
2021/01/14 03:14:50;;;;;;;52.58;21.90;;;;;;;-3.13;88.85;98065.63;3510321;28;20048;-44
2021/01/14 03:16:36;;;;;;;45.58;20.63;;;;;;;-3.13;88.61;98074.13;3509442;28;20044;-43
2021/01/14 03:18:17;;;;;;;46.80;21.75;;;;;;;-3.11;88.67;98072.50;3511370;28;20055;-43
2021/01/14 03:19:58;;;;;;;48.10;20.67;;;;;;;-3.12;88.36;98069.91;3508918;28;20417;-44
2021/01/14 03:21:40;;;;;;;57.35;24.35;;;;;;;-3.12;88.27;98068.22;3509197;28;20078;-43
2021/01/14 03:23:21;;;;;;;59.53;25.33;;;;;;;-3.13;88.13;98061.44;3511751;28;20052;-43
2021/01/14 03:25:04;;;;;;;51.35;22.92;;;;;;;-3.13;88.29;98056.34;3509484;28;20055;-43
2021/01/14 03:26:45;;;;;;;49.42;22.23;;;;;;;-3.13;88.34;98063.97;3508216;28;20135;-44
2021/01/14 03:28:27;;;;;;;54.55;21.70;;;;;;;-3.13;88.58;98058.91;3511191;28;20075;-43
2021/01/14 03:30:11;;;;;;;54.20;22.83;;;;;;;-3.14;88.66;98061.38;3509445;28;20059;-43
2021/01/14 03:31:53;;;;;;;54.22;23.25;;;;;;;-3.14;88.48;98059.69;3508131;28;20091;-44
2021/01/14 03:33:35;;;;;;;53.30;23.42;;;;;;;-3.13;88.40;98058.91;3509969;28;20102;-43
2021/01/14 03:35:17;;;;;;;60.25;23.35;;;;;;;-3.11;88.80;98057.28;3509175;28;20462;-43
2021/01/14 03:36:58;;;;;;;55.20;22.63;;;;;;;-3.09;88.57;98062.44;3511219;28;20048;-43
2021/01/14 03:38:39;;;;;;;51.97;22.52;;;;;;;-3.07;88.59;98063.34;3509265;28;20044;-43
2021/01/14 03:40:21;;;;;;;57.75;24.25;;;;;;;-3.05;88.79;98057.53;3509201;28;20051;-43
2021/01/14 03:42:02;;;;;;;59.70;23.58;;;;;;;-3.03;88.77;98062.66;3497247;28;20048;-44
2021/01/14 03:43:45;;;;;;;46.05;21.50;;;;;;;-3.02;88.60;98064.41;3504414;28;20138;-43
2021/01/14 03:45:26;;;;;;;56.67;22.85;;;;;;;-3.02;88.16;98067.81;3509530;28;20098;-43
2021/01/14 03:47:07;;;;;;;59.22;23.70;;;;;;;-3.02;88.24;98067.81;3509825;28;20047;-43
2021/01/14 03:48:49;;;;;;;58.80;25.17;;;;;;;-3.03;88.04;98071.13;3507651;28;20040;-43
2021/01/14 03:50:31;;;;;;;51.88;22.33;;;;;;;-3.04;88.39;98071.94;3511317;28;20448;-43
2021/01/14 03:52:12;;;;;;;55.47;25.00;;;;;;;-3.04;88.38;98077.03;3507565;28;20369;-43
2021/01/14 03:53:53;;;;;;;58.97;25.05;;;;;;;-3.05;88.59;98075.28;3507626;28;20578;-43
2021/01/14 03:55:34;;;;;;;58.33;26.30;;;;;;;-3.06;88.27;98078.63;3511053;28;20047;-44
2021/01/14 03:57:16;;;;;;;64.38;27.13;;;;;;;-3.06;88.61;98080.28;3509189;28;20048;-43
2021/01/14 03:58:58;;;;;;;57.65;23.60;;;;;;;-3.07;88.36;98078.56;3510373;28;20052;-43
2021/01/14 04:00:39;;;;;;;56.45;23.83;;;;;;;-3.10;88.35;98073.34;3509737;28;20048;-44
2021/01/14 04:02:21;;;;;;;56.38;23.52;;;;;;;-3.10;88.62;98073.34;3507554;28;20068;-43
2021/01/14 04:04:03;;;;;;;53.10;21.60;;;;;;;-3.11;88.55;98074.16;3510956;28;20390;-43
2021/01/14 04:05:44;;;;;;;54.63;23.02;;;;;;;-3.12;88.81;98070.75;3508222;28;20056;-49
2021/01/14 04:07:25;;;;;;;55.95;24.80;;;;;;;-3.11;88.71;98071.63;3508962;28;20547;-51
2021/01/14 04:09:07;;;;;;;53.83;24.90;;;;;;;-3.11;88.85;98069.97;3510865;28;20596;-50
2021/01/14 04:10:49;;;;;;;55.13;24.90;;;;;;;-3.11;88.90;98064.91;3507428;28;20107;-53
2021/01/14 04:12:30;;;;;;;57.95;24.92;;;;;;;-3.11;89.00;98058.94;3510167;28;20117;-48
2021/01/14 04:14:12;;;;;;;52.45;22.60;;;;;;;-3.11;88.77;98061.47;3510169;28;20056;-43
2021/01/14 04:15:54;;;;;;;50.53;21.98;;;;;;;-3.12;89.10;98062.28;3507267;28;20093;-44
2021/01/14 04:17:36;;;;;;;51.90;22.20;;;;;;;-3.11;88.84;98064.91;3510133;28;20065;-44
2021/01/14 04:19:17;;;;;;;56.80;23.20;;;;;;;-3.11;89.09;98069.97;3508400;28;20185;-43
2021/01/14 04:20:59;;;;;;;54.50;22.02;;;;;;;-3.10;89.14;98065.75;3507224;28;20478;-44
2021/01/14 04:22:40;;;;;;;48.47;21.65;;;;;;;-3.10;88.89;98059.00;3510881;28;20056;-44
2021/01/14 04:24:22;;;;;;;52.95;22.67;;;;;;;-3.09;89.05;98067.50;3508816;28;20120;-43
2021/01/14 04:26:03;;;;;;;45.65;19.58;;;;;;;-3.08;88.81;98059.94;3508521;28;20406;-43
2021/01/14 04:27:45;;;;;;;54.13;23.65;;;;;;;-3.07;88.57;98066.75;3509703;28;20055;-43
2021/01/14 04:29:27;;;;;;;56.58;22.55;;;;;;;-3.06;88.71;98067.59;3507248;28;20048;-43
2021/01/14 04:31:12;;;;;;;55.70;22.55;;;;;;;-3.05;88.97;98060.06;3507921;28;20051;-43
2021/01/14 04:33:11;;;;;;;53.70;22.70;;;;;;;-3.01;89.08;98051.78;3509230;28;20052;-44
2021/01/14 04:34:52;;;;;;;54.63;22.98;;;;;;;-2.97;88.72;98055.31;3508665;28;20554;-52
2021/01/14 04:36:34;;;;;;;56.85;22.58;;;;;;;-2.93;88.77;98059.69;3509333;28;20062;-52
2021/01/14 04:38:16;;;;;;;50.42;22.23;;;;;;;-2.89;88.92;98068.28;3508755;28;20394;-53
2021/01/14 04:39:58;;;;;;;54.65;24.42;;;;;;;-2.86;88.53;98065.91;3507123;28;20059;-50
2021/01/14 04:41:47;;;;;;;53.42;22.83;;;;;;;-2.83;88.53;98064.34;3510288;28;20055;-49
2021/01/14 04:43:30;;;;;;;50.42;21.98;;;;;;;-2.81;88.55;98064.41;3507461;28;20044;-53
2021/01/14 04:45:13;;;;;;;50.28;23.13;;;;;;;-2.79;88.38;98062.78;3507081;28;20056;-53
2021/01/14 04:47:02;;;;;;;56.75;23.83;;;;;;;-2.75;88.29;98062.09;3510580;28;20044;-50
2021/01/14 04:48:45;;;;;;;52.05;24.35;;;;;;;-2.72;88.15;98072.38;3508572;28;20052;-48
2021/01/14 04:50:27;;;;;;;51.65;21.95;;;;;;;-2.71;88.04;98066.47;3509404;28;20050;-50
2021/01/14 04:52:15;;;;;;;52.63;22.00;;;;;;;-2.68;87.94;98071.69;3509890;28;20086;-52
2021/01/14 04:54:02;;;;;;;53.50;21.13;;;;;;;-2.65;87.79;98069.28;3506922;28;20051;-50
2021/01/14 04:55:44;;;;;;;50.83;20.85;;;;;;;-2.63;87.85;98071.88;3509510;28;20066;-52
2021/01/14 04:57:30;;;;;;;55.80;23.38;;;;;;;-2.62;87.81;98074.50;3497586;28;20056;-50
2021/01/14 04:59:15;;;;;;;54.03;21.23;;;;;;;-2.59;87.87;98070.34;3504291;28;20040;-51
2021/01/14 05:00:58;;;;;;;48.08;20.90;;;;;;;-2.59;87.83;98073.72;3509759;28;20052;-52
2021/01/14 05:02:55;;;;;;;53.35;21.67;;;;;;;-2.56;87.41;98065.38;3508984;28;20052;-52
2021/01/14 05:04:43;;;;;;;51.17;21.38;;;;;;;-2.56;87.55;98061.16;3508311;28;20075;-51
2021/01/14 05:06:25;;;;;;;48.53;21.92;;;;;;;-2.55;87.45;98059.47;3510009;28;20059;-51
2021/01/14 05:08:08;;;;;;;58.28;23.13;;;;;;;-2.54;87.31;98056.16;3508789;28;20509;-52
2021/01/14 05:09:50;;;;;;;58.65;23.80;;;;;;;-2.55;87.39;98060.34;3507056;28;20044;-48
2021/01/14 05:11:40;;;;;;;46.55;21.60;;;;;;;-2.54;87.13;98049.38;3510774;28;20059;-49
2021/01/14 05:13:22;;;;;;;55.08;23.98;;;;;;;-2.56;87.13;98057.78;3508526;28;20501;-48
2021/01/14 05:15:04;;;;;;;49.80;22.08;;;;;;;-2.58;87.23;98055.16;3506744;28;20070;-53
2021/01/14 05:16:48;;;;;;;55.45;23.90;;;;;;;-2.62;87.30;98051.66;3496195;28;20052;-50
2021/01/14 05:18:29;;;;;;;52.25;21.58;;;;;;;-2.62;87.21;98061.78;3505597;28;20040;-52
2021/01/14 05:20:11;;;;;;;47.17;22.10;;;;;;;-2.64;87.36;98063.38;3508549;28;20464;-49
2021/01/14 05:21:54;;;;;;;52.33;22.52;;;;;;;-2.66;86.92;98061.59;3510172;28;20139;-52
2021/01/14 05:23:36;;;;;;;53.78;23.60;;;;;;;-2.68;87.06;98064.06;3506713;28;20044;-52
2021/01/14 05:25:17;;;;;;;51.67;22.75;;;;;;;-2.68;87.53;98063.22;3508266;28;20540;-50
2021/01/14 05:26:59;;;;;;;52.10;21.50;;;;;;;-2.69;87.14;98059.81;3508636;28;20051;-49
2021/01/14 05:28:40;;;;;;;47.65;21.77;;;;;;;-2.67;87.43;98067.47;3508150;28;20063;-52
2021/01/14 05:30:22;;;;;;;47.08;19.83;;;;;;;-2.68;87.14;98060.69;3507759;28;20047;-50
2021/01/14 05:32:04;;;;;;;49.58;21.52;;;;;;;-2.68;86.99;98061.53;3505966;28;20048;-44
2021/01/14 05:33:57;;;;;;;52.95;21.60;;;;;;;-2.69;86.97;98066.53;3508143;28;20048;-50
2021/01/14 05:35:47;;;;;;;46.40;21.25;;;;;;;-2.72;86.52;98062.22;3510091;28;20048;-53
2021/01/14 05:37:28;;;;;;;47.03;18.95;;;;;;;-2.73;86.81;98067.25;3507818;28;20044;-51
2021/01/14 05:39:14;;;;;;;46.92;21.30;;;;;;;-2.76;86.71;98070.50;3507511;28;20690;-52
2021/01/14 05:41:20;;;;;;;49.65;20.75;;;;;;;-2.79;86.23;98072.94;3510056;28;20055;-52
2021/01/14 05:43:04;;;;;;;49.63;20.38;;;;;;;-2.81;86.42;98065.25;3499588;28;20080;-43
2021/01/14 05:44:46;;;;;;;45.05;19.40;;;;;;;-2.82;86.70;98073.66;3501912;28;20505;-43
2021/01/14 05:46:29;;;;;;;48.03;20.05;;;;;;;-2.81;86.46;98077.09;3509043;28;20097;-43
2021/01/14 05:48:13;;;;;;;48.03;22.13;;;;;;;-2.82;86.45;98075.34;3507936;28;20075;-43
2021/01/14 05:49:56;;;;;;;55.00;23.38;;;;;;;-2.83;86.72;98077.03;3506440;28;20044;-43
2021/01/14 05:51:38;;;;;;;49.60;23.23;;;;;;;-2.82;86.47;98082.97;3509765;28;20533;-43
2021/01/14 05:53:20;;;;;;;58.40;24.70;;;;;;;-2.84;86.79;98074.44;3504355;28;20049;-43
2021/01/14 05:55:05;;;;;;;55.10;23.58;;;;;;;-2.84;86.92;98082.91;3497178;28;20044;-43
2021/01/14 05:56:48;;;;;;;56.22;23.77;;;;;;;-2.86;87.25;98076.91;3496121;28;20106;-43
2021/01/14 05:58:36;;;;;;;59.00;24.20;;;;;;;-2.88;87.63;98080.16;3503591;28;20051;-51
2021/01/14 06:00:19;;;;;;;47.25;21.52;;;;;;;-2.88;87.72;98080.16;3508260;28;20312;-52
2021/01/14 06:02:01;;;;;;;54.65;24.15;;;;;;;-2.90;87.45;98080.13;3495601;28;20057;-49
2021/01/14 06:03:43;;;;;;;55.78;23.35;;;;;;;-2.89;87.48;98078.44;3498252;28;20087;-50
2021/01/14 06:05:28;;;;;;;55.58;23.33;;;;;;;-2.90;87.37;98075.06;3497939;28;20059;-50
2021/01/14 06:07:10;;;;;;;48.55;22.45;;;;;;;-2.90;87.36;98077.59;3509784;28;20416;-52
2021/01/14 06:09:06;;;;;;;50.42;21.40;;;;;;;-2.89;87.74;98075.91;3509112;28;20541;-43
2021/01/14 06:10:47;;;;;;;57.63;22.00;;;;;;;-2.89;87.47;98080.97;3510908;28;20483;-43
2021/01/14 06:12:29;;;;;;;55.40;23.08;;;;;;;-2.88;87.59;98072.56;3510266;28;20101;-43
2021/01/14 06:14:26;;;;;;;52.05;22.92;;;;;;;-2.87;87.80;98075.16;3510028;28;20053;-49
2021/01/14 06:16:08;;;;;;;54.20;22.83;;;;;;;-2.84;88.03;98069.34;3511842;28;20048;-43
2021/01/14 06:17:50;;;;;;;58.88;24.00;;;;;;;-2.82;88.22;98068.59;3509968;28;20048;-43
2021/01/14 06:19:33;;;;;;;52.08;21.30;;;;;;;-2.79;88.16;98065.34;3508587;28;20044;-43
2021/01/14 06:21:15;;;;;;;54.83;23.33;;;;;;;-2.76;88.11;98067.97;3512282;28;20052;-43
2021/01/14 06:22:56;;;;;;;60.42;24.17;;;;;;;-2.75;87.46;98062.09;3510103;28;20052;-43
2021/01/14 06:24:39;;;;;;;48.03;20.35;;;;;;;-2.74;87.48;98066.38;3509938;28;20093;-43
2021/01/14 06:26:27;;;;;;;55.20;22.50;;;;;;;-2.71;87.50;98073.25;3498319;28;20134;-43
2021/01/14 06:28:08;;;;;;;51.78;20.23;;;;;;;-2.70;87.30;98067.38;3506443;28;20048;-43
2021/01/14 06:30:00;;;;;;;48.70;22.05;;;;;;;-2.67;87.44;98070.00;3510166;28;20052;-49
2021/01/14 06:31:41;;;;;;;52.75;20.90;;;;;;;-2.65;87.29;98070.97;3509447;28;20063;-50
2021/01/14 06:33:24;;;;;;;57.05;22.10;;;;;;;-2.64;86.94;98075.22;3508754;28;20501;-52
2021/01/14 06:35:07;;;;;;;47.72;21.92;;;;;;;-2.62;86.96;98073.59;3510897;28;20048;-43
2021/01/14 06:36:50;;;;;;;52.55;22.20;;;;;;;-2.60;86.84;98068.59;3510338;28;20462;-48
2021/01/14 06:38:41;;;;;;;50.40;21.30;;;;;;;-2.58;87.23;98061.88;3508548;28;20076;-51
2021/01/14 06:40:28;;;;;;;51.95;22.52;;;;;;;-2.57;87.24;98067.03;3512520;28;20425;-43
2021/01/14 06:42:19;;;;;;;49.03;20.85;;;;;;;-2.55;87.31;98073.03;3510574;28;20048;-50
2021/01/14 06:44:06;;;;;;;49.22;21.85;;;;;;;-2.54;87.29;98074.78;3510421;28;20048;-42
2021/01/14 06:45:51;;;;;;;48.72;22.63;;;;;;;-2.55;87.40;98070.50;3512176;28;20063;-52
2021/01/14 06:47:37;;;;;;;50.03;20.38;;;;;;;-2.51;87.36;98081.63;3510498;28;20470;-53
2021/01/14 06:49:30;;;;;;;52.90;24.20;;;;;;;-2.49;87.45;98069.88;3511536;28;20500;-42
2021/01/14 06:51:22;;;;;;;54.55;22.52;;;;;;;-2.47;87.34;98078.44;3510317;28;20101;-43
2021/01/14 06:53:09;;;;;;;48.95;21.88;;;;;;;-2.45;87.15;98080.19;3510840;28;20055;-43
2021/01/14 06:54:52;;;;;;;53.17;21.02;;;;;;;-2.47;86.56;98074.22;3510889;28;20485;-43
2021/01/14 06:56:47;;;;;;;46.75;21.65;;;;;;;-2.48;87.01;98090.22;3510831;28;20063;-45
2021/01/14 06:58:29;;;;;;;;;;;;;;;-2.48;87.01;98080.06;3499270;28;20048;-43
2021/01/14 07:00:16;;;;;;;40.53;18.42;;;;;;;-2.46;86.85;98081.03;3506756;28;19966;-43
2021/01/14 07:02:34;;;;;;;47.72;20.35;;;;;;;-2.44;86.84;98081.09;3510429;28;20102;-50
2021/01/14 07:04:32;;;;;;;47.85;21.45;;;;;;;-2.49;85.69;98078.38;3505599;28;20235;-49
2021/01/14 07:06:22;;;;;;;50.70;21.08;;;;;;;-2.55;85.30;98089.94;3508509;28;20048;-44
2021/01/14 07:08:28;;;;;;;43.90;19.98;;;;;;;-2.56;85.82;98086.53;3506931;28;20059;-43
2021/01/14 07:10:10;;;;;;;41.92;18.85;;;;;;;-2.55;86.52;98089.94;3493887;28;20049;-44
2021/01/14 07:11:59;;;;;;;48.55;21.13;;;;;;;-2.52;86.57;98092.59;3503441;28;20052;-43
2021/01/14 07:13:42;;;;;;;50.88;20.63;;;;;;;-2.51;86.46;98086.72;3503949;28;20075;-43
2021/01/14 07:15:26;;;;;;;46.75;19.95;;;;;;;-2.49;85.92;98097.81;3502793;28;20045;-43
2021/01/14 07:17:11;;;;;;;43.70;18.90;;;;;;;-2.50;85.84;98096.06;3505134;28;20045;-43
2021/01/14 07:18:52;;;;;;;56.90;21.52;;;;;;;-2.51;86.23;98090.13;3506053;28;20044;-43
2021/01/14 07:20:35;;;;;;;45.45;20.20;;;;;;;-2.50;86.09;98091.84;3505855;28;20044;-43
2021/01/14 07:22:17;;;;;;;44.40;20.73;;;;;;;-2.46;86.19;98090.28;3505041;28;20051;-43
2021/01/14 07:24:03;;;;;;;43.63;19.48;;;;;;;-2.44;86.60;98102.25;3505124;28;20052;-43
2021/01/14 07:25:47;;;;;;;53.85;21.38;;;;;;;-2.41;86.54;98093.88;3504948;28;20097;-49
2021/01/14 07:27:29;;;;;;;;;;;;;;;-2.38;86.71;98093.16;3505034;28;20059;-53
2021/01/14 07:29:11;;;;;;;53.17;21.52;;;;;;;-2.36;86.63;98097.47;3505068;28;19931;-43
2021/01/14 07:30:53;;;;;;;57.20;23.58;;;;;;;-2.35;86.75;98093.25;3502347;28;20052;-43
2021/01/14 07:32:51;;;;;;;51.75;20.65;;;;;;;-2.32;86.89;98095.91;3504865;28;20105;-43
2021/01/14 07:34:38;;;;;;;52.58;22.35;;;;;;;-2.30;87.26;98100.25;3504273;28;20060;-43
2021/01/14 07:36:23;;;;;;;55.97;22.88;;;;;;;-2.26;87.43;98097.03;3505694;28;20144;-42
2021/01/14 07:38:05;;;;;;;52.92;25.20;;;;;;;-2.21;87.51;98093.78;3505014;28;20044;-43
2021/01/14 07:39:55;;;;;;;49.38;21.30;;;;;;;-2.18;87.84;98094.78;3502651;28;20548;-52
2021/01/14 07:41:55;;;;;;;50.40;20.65;;;;;;;-2.14;87.49;98098.28;3502715;28;20052;-51
2021/01/14 07:43:37;;;;;;;50.30;20.88;;;;;;;-2.11;87.65;98099.28;3504834;28;20048;-52
2021/01/14 07:45:19;;;;;;;54.05;24.08;;;;;;;-2.07;87.24;98092.63;3503285;28;20058;-49
2021/01/14 07:47:00;;;;;;;48.42;21.13;;;;;;;-2.05;87.57;98093.59;3503461;28;20473;-49
2021/01/14 07:48:42;;;;;;;58.30;22.60;;;;;;;-2.02;87.51;98090.28;3504804;28;20044;-50
2021/01/14 07:50:26;;;;;;;49.70;22.15;;;;;;;-2.01;87.21;98095.41;3502441;28;20139;-50
2021/01/14 07:52:09;;;;;;;46.42;20.42;;;;;;;-1.99;87.39;98092.94;3503977;28;20047;-52
2021/01/14 07:54:06;;;;;;;48.38;20.67;;;;;;;-1.98;87.02;98100.63;3505333;28;20048;-53
2021/01/14 07:55:47;;;;;;;42.70;19.55;;;;;;;-1.98;87.00;98105.69;3504175;28;20101;-48
2021/01/14 07:57:29;;;;;;;48.03;21.15;;;;;;;-1.97;86.98;98096.41;3502046;28;20040;-50
2021/01/14 07:59:11;;;;;;;52.85;21.55;;;;;;;-1.97;87.07;98101.47;3504100;28;20074;-52